createdAt,value
2022-12-22T00:01:54.293Z,98.03
2022-12-22T00:04:40.003Z,98.34
2022-12-22T00:07:25.633Z,98.06
2022-12-22T00:10:10.940Z,97.92
2022-12-22T00:12:57.664Z,97.54
2022-12-22T00:15:43.450Z,98.61
2022-12-22T00:18:33.252Z,98.17
2022-12-22T00:21:18.450Z,98.35
2022-12-22T00:24:03.818Z,98.25
2022-12-22T00:26:52.623Z,98.34
2022-12-22T00:29:40.201Z,98.95
2022-12-22T00:32:31.259Z,99.73
2022-12-22T00:35:16.581Z,98.47
2022-12-22T00:38:01.829Z,99.43
2022-12-22T00:40:47.659Z,100.00
2022-12-22T00:43:33.441Z,100.00
2022-12-22T00:46:22.084Z,100.00
2022-12-22T00:49:08.219Z,100.00
2022-12-22T00:51:53.556Z,100.00
2022-12-22T00:54:40.905Z,100.00
2022-12-22T00:57:35.176Z,100.00
2022-12-22T01:00:20.831Z,100.00
2022-12-22T01:03:07.593Z,100.00
2022-12-22T01:05:53.195Z,100.00
2022-12-22T01:08:38.367Z,100.00
2022-12-22T01:11:24.177Z,100.00
2022-12-22T01:14:09.449Z,100.00
2022-12-22T01:16:54.757Z,100.00
2022-12-22T01:19:41.815Z,100.00
2022-12-22T01:22:29.498Z,100.00
2022-12-22T01:25:15.316Z,100.00
2022-12-22T01:28:00.527Z,100.00
2022-12-22T01:30:45.772Z,100.00
2022-12-22T01:33:32.210Z,100.00
2022-12-22T01:36:18.557Z,100.00
2022-12-22T01:39:03.829Z,100.00
2022-12-22T01:41:49.094Z,100.00
2022-12-22T01:44:36.194Z,100.00
2022-12-22T01:47:50.341Z,100.00
2022-12-22T01:50:44.291Z,100.00
2022-12-22T01:53:36.844Z,100.00
2022-12-22T01:56:22.919Z,100.00
2022-12-22T01:59:11.650Z,100.00
2022-12-22T02:01:59.508Z,100.00
2022-12-22T02:04:49.487Z,100.00
2022-12-22T02:07:50.877Z,100.00
2022-12-22T02:10:58.112Z,100.00
2022-12-22T02:13:51.824Z,100.00
2022-12-22T02:16:45.289Z,100.00
2022-12-22T02:19:42.668Z,100.00
2022-12-22T02:22:40.115Z,100.00
2022-12-22T02:25:33.953Z,100.00
2022-12-22T02:28:21.700Z,100.00
2022-12-22T02:31:10.018Z,100.00
2022-12-22T02:33:55.276Z,100.00
2022-12-22T02:36:49.751Z,100.00
2022-12-22T02:39:43.202Z,100.00
2022-12-22T02:42:40.679Z,100.00
2022-12-22T02:45:35.596Z,100.00
2022-12-22T02:48:24.992Z,100.00
2022-12-22T02:51:14.091Z,100.00
2022-12-22T02:53:59.779Z,100.00
2022-12-22T02:56:44.908Z,100.00
2022-12-22T02:59:30.460Z,100.00
2022-12-22T03:02:17.034Z,100.00
2022-12-22T03:05:02.383Z,100.00
2022-12-22T03:07:47.944Z,100.00
2022-12-22T03:10:33.687Z,100.00
2022-12-22T03:13:19.515Z,100.00
2022-12-22T03:16:04.861Z,100.00
2022-12-22T03:18:51.515Z,100.00
2022-12-22T03:21:36.797Z,100.00
2022-12-22T03:24:22.551Z,100.00
2022-12-22T03:26:50.516Z,100.00
2022-12-22T03:29:18.508Z,100.00
2022-12-22T03:31:46.592Z,100.00
2022-12-22T03:34:16.107Z,100.00
2022-12-22T03:36:44.006Z,100.00
2022-12-22T03:39:11.853Z,100.00
2022-12-22T03:41:57.409Z,100.00
2022-12-22T03:44:42.083Z,100.00
2022-12-22T03:47:10.159Z,100.00
2022-12-22T03:49:39.426Z,100.00
2022-12-22T03:52:07.279Z,100.00
2022-12-22T03:54:35.087Z,100.00
2022-12-22T03:57:02.948Z,100.00
2022-12-22T03:59:30.774Z,100.00
2022-12-22T04:01:58.739Z,100.00
2022-12-22T04:04:27.633Z,100.00
2022-12-22T04:06:57.085Z,100.00
2022-12-22T04:09:27.126Z,100.00
2022-12-22T04:12:13.103Z,100.00
2022-12-22T04:14:40.920Z,100.00
2022-12-22T04:17:09.755Z,100.00
2022-12-22T04:19:37.743Z,100.00
2022-12-22T04:22:07.240Z,100.00
2022-12-22T04:24:35.178Z,100.00
2022-12-22T04:27:03.187Z,100.00
2022-12-22T04:29:31.031Z,100.00
2022-12-22T04:31:59.055Z,100.00
2022-12-22T04:34:26.908Z,100.00
2022-12-22T04:36:54.784Z,100.00
2022-12-22T04:39:24.002Z,100.00
2022-12-22T04:41:51.827Z,100.00
2022-12-22T04:44:19.645Z,100.00
2022-12-22T04:46:47.717Z,100.00
2022-12-22T04:49:15.589Z,100.00
2022-12-22T04:51:43.471Z,100.00
2022-12-22T04:54:12.086Z,100.00
2022-12-22T04:56:41.272Z,100.00
2022-12-22T04:59:09.658Z,100.00
2022-12-22T05:01:37.745Z,100.00
2022-12-22T05:04:06.013Z,100.00
2022-12-22T05:06:34.193Z,100.00
2022-12-22T05:09:02.148Z,100.00
2022-12-22T05:11:30.098Z,100.00
2022-12-22T05:14:05.230Z,100.00
2022-12-22T05:16:34.993Z,100.00
2022-12-22T05:19:03.403Z,100.00
2022-12-22T05:21:31.378Z,100.00
2022-12-22T05:23:59.881Z,100.00
2022-12-22T05:26:27.725Z,100.00
2022-12-22T05:28:55.885Z,100.00
2022-12-22T05:31:26.661Z,100.00
2022-12-22T05:33:54.608Z,100.00
2022-12-22T05:36:22.506Z,100.00
2022-12-22T05:38:50.342Z,100.00
2022-12-22T05:41:18.158Z,100.00
2022-12-22T05:43:46.040Z,100.00
2022-12-22T05:46:14.037Z,100.00
2022-12-22T05:48:43.339Z,100.00
2022-12-22T05:51:12.091Z,100.00
2022-12-22T05:53:40.390Z,100.00
2022-12-22T05:56:09.390Z,100.00
2022-12-22T05:58:39.512Z,100.00
2022-12-22T06:01:07.884Z,100.00
2022-12-22T06:03:35.879Z,100.00
2022-12-22T06:06:05.621Z,100.00
2022-12-22T06:08:33.477Z,100.00
2022-12-22T06:11:01.281Z,100.00
2022-12-22T06:13:29.210Z,100.00
2022-12-22T06:15:57.330Z,100.00
2022-12-22T06:18:25.199Z,100.00
2022-12-22T06:20:53.438Z,100.00
2022-12-22T06:23:23.338Z,100.00
2022-12-22T06:25:58.350Z,100.00
2022-12-22T06:28:26.779Z,100.00
2022-12-22T06:30:54.876Z,100.00
2022-12-22T06:33:22.955Z,100.00
2022-12-22T06:35:57.524Z,100.00
2022-12-22T06:38:28.608Z,100.00
2022-12-22T06:40:56.717Z,100.00
2022-12-22T06:43:23.615Z,99.21
2022-12-22T06:45:51.472Z,99.48
2022-12-22T06:48:20.318Z,98.21
2022-12-22T06:50:48.166Z,98.09
2022-12-22T06:53:16.060Z,97.65
2022-12-22T06:55:45.230Z,97.42
2022-12-22T06:58:13.168Z,97.46
2022-12-22T07:00:40.990Z,97.67
2022-12-22T07:03:08.980Z,97.37
2022-12-22T07:05:37.074Z,97.26
2022-12-22T07:08:08.755Z,97.41
2022-12-22T07:11:01.003Z,96.78
2022-12-22T07:13:32.684Z,97.14
2022-12-22T07:16:01.918Z,96.28
2022-12-22T07:18:31.428Z,96.88
2022-12-22T07:21:00.697Z,96.25
2022-12-22T07:23:29.213Z,95.62
2022-12-22T07:25:57.343Z,95.70
2022-12-22T07:28:25.641Z,95.14
2022-12-22T07:30:55.790Z,95.06
2022-12-22T07:33:24.204Z,95.99
2022-12-22T07:36:03.780Z,97.03
2022-12-22T07:38:33.700Z,97.63
2022-12-22T07:41:05.297Z,98.65
2022-12-22T07:43:32.605Z,99.95
2022-12-22T07:46:01.918Z,100.00
2022-12-22T07:48:47.594Z,100.00
2022-12-22T07:51:15.481Z,100.00
2022-12-22T07:53:43.330Z,100.00
2022-12-22T07:56:11.337Z,100.00
2022-12-22T07:58:39.159Z,100.00
2022-12-22T08:01:08.348Z,100.00
2022-12-22T08:03:36.310Z,100.00
2022-12-22T08:06:05.624Z,100.00
2022-12-22T08:08:34.568Z,100.00
2022-12-22T08:11:02.939Z,100.00
2022-12-22T08:13:30.858Z,100.00
2022-12-22T08:16:05.015Z,100.00
2022-12-22T08:18:34.973Z,100.00
2022-12-22T08:21:03.936Z,100.00
2022-12-22T08:23:32.481Z,100.00
2022-12-22T08:26:04.884Z,100.00
2022-12-22T08:28:35.645Z,100.00
2022-12-22T08:31:04.828Z,100.00
2022-12-22T08:33:34.287Z,100.00
2022-12-22T08:36:07.824Z,100.00
2022-12-22T08:38:37.691Z,100.00
2022-12-22T08:41:06.231Z,100.00
2022-12-22T08:43:34.631Z,100.00
2022-12-22T08:46:02.521Z,100.00
2022-12-22T08:48:30.462Z,98.94
2022-12-22T08:50:59.740Z,97.62
2022-12-22T08:54:03.189Z,96.92
2022-12-22T08:56:15.390Z,97.84
2022-12-22T08:58:43.334Z,97.54
2022-12-22T09:01:17.150Z,96.99
2022-12-22T09:03:49.306Z,97.01
2022-12-22T09:06:19.874Z,97.01
2022-12-22T09:08:55.334Z,96.37
2022-12-22T09:11:23.304Z,97.78
2022-12-22T09:13:53.002Z,97.80
2022-12-22T09:16:22.231Z,98.32
2022-12-22T09:18:50.439Z,98.96
2022-12-22T09:21:19.951Z,98.94
2022-12-22T09:23:47.811Z,99.80
2022-12-22T09:26:17.636Z,100.00
2022-12-22T09:28:50.085Z,100.00
2022-12-22T09:31:19.564Z,100.00
2022-12-22T09:33:47.550Z,100.00
2022-12-22T09:36:17.913Z,100.00
2022-12-22T09:38:47.427Z,100.00
2022-12-22T09:41:19.812Z,100.00
2022-12-22T09:43:48.426Z,100.00
2022-12-22T09:46:22.472Z,100.00
2022-12-22T09:48:51.084Z,100.00
2022-12-22T09:51:26.133Z,100.00
2022-12-22T09:54:00.003Z,100.00
2022-12-22T09:56:29.409Z,100.00
2022-12-22T09:58:58.189Z,100.00
2022-12-22T10:01:43.409Z,100.00
2022-12-22T10:04:21.672Z,100.00
2022-12-22T10:07:00.104Z,100.00
2022-12-22T10:09:48.708Z,100.00
2022-12-22T10:12:20.521Z,100.00
2022-12-22T10:14:50.453Z,100.00
2022-12-22T10:17:21.062Z,100.00
2022-12-22T10:19:51.341Z,100.00
2022-12-22T10:22:26.363Z,100.00
2022-12-22T10:24:55.719Z,100.00
2022-12-22T10:27:29.145Z,100.00
2022-12-22T10:30:18.849Z,100.00
2022-12-22T10:33:03.611Z,100.00
2022-12-22T10:35:47.303Z,100.00
2022-12-22T10:38:21.431Z,100.00
2022-12-22T10:41:00.101Z,100.00
2022-12-22T10:43:32.854Z,100.00
2022-12-22T10:46:02.210Z,100.00
2022-12-22T10:48:33.592Z,100.00
2022-12-22T10:51:02.854Z,100.00
2022-12-22T10:53:46.690Z,100.00
2022-12-22T10:56:28.121Z,100.00
2022-12-22T10:58:58.165Z,100.00
2022-12-22T11:01:29.569Z,100.00
2022-12-22T11:03:58.418Z,100.00
2022-12-22T11:06:26.410Z,100.00
2022-12-22T11:08:58.150Z,100.00
2022-12-22T11:11:47.472Z,100.00
2022-12-22T11:14:27.976Z,100.00
2022-12-22T11:17:04.181Z,100.00
2022-12-22T11:19:46.152Z,100.00
2022-12-22T11:22:25.556Z,100.00
2022-12-22T11:25:08.159Z,100.00
2022-12-22T11:27:47.914Z,100.00
2022-12-22T11:30:19.926Z,100.00
2022-12-22T11:33:17.640Z,100.00
2022-12-22T11:35:56.483Z,100.00
2022-12-22T11:38:37.370Z,100.00
2022-12-22T11:41:15.719Z,100.00
2022-12-22T11:43:58.841Z,99.85
2022-12-22T11:46:33.197Z,100.00
2022-12-22T11:49:17.046Z,100.00
2022-12-22T11:52:01.067Z,100.00
2022-12-22T11:54:50.055Z,100.00
2022-12-22T11:57:28.067Z,99.54
2022-12-22T12:00:04.877Z,97.88
2022-12-22T12:03:15.125Z,98.19
2022-12-22T12:06:05.103Z,97.89
2022-12-22T12:08:44.703Z,96.77
2022-12-22T12:11:21.409Z,97.33
2022-12-22T12:14:01.362Z,96.64
2022-12-22T12:16:40.350Z,96.54
2022-12-22T12:19:33.844Z,97.36
2022-12-22T12:22:05.674Z,96.39
2022-12-22T12:24:48.429Z,96.33
2022-12-22T12:27:30.598Z,96.01
2022-12-22T12:30:36.950Z,94.51
2022-12-22T12:33:00.021Z,93.38
2022-12-22T12:35:47.874Z,93.09
2022-12-22T12:38:39.843Z,93.19
2022-12-22T12:41:13.895Z,92.53
2022-12-22T12:43:42.764Z,92.39
2022-12-22T12:46:45.809Z,92.25
2022-12-22T12:49:52.302Z,91.98
2022-12-22T12:53:04.925Z,93.51
2022-12-22T12:55:51.388Z,92.98
2022-12-22T12:58:50.558Z,92.30
2022-12-22T13:01:55.999Z,92.77
2022-12-22T13:05:10.553Z,92.38
2022-12-22T13:08:07.074Z,91.99
2022-12-22T13:10:41.232Z,92.78
2022-12-22T13:13:12.495Z,91.77
2022-12-22T13:15:42.030Z,91.99
2022-12-22T13:18:47.450Z,91.09
2022-12-22T13:24:25.789Z,90.93
2022-12-22T13:26:57.006Z,91.30
2022-12-22T13:29:29.677Z,90.51
2022-12-22T13:32:02.047Z,91.63
2022-12-22T13:35:20.190Z,91.25
2022-12-22T13:37:41.583Z,90.58
2022-12-22T13:40:15.765Z,90.79
2022-12-22T13:42:48.730Z,90.83
2022-12-22T13:45:24.738Z,91.52
2022-12-22T13:47:53.269Z,91.59
2022-12-22T13:50:24.514Z,91.26
2022-12-22T13:52:53.501Z,91.27
2022-12-22T13:55:26.130Z,90.97
2022-12-22T13:57:58.904Z,90.74
2022-12-22T14:00:29.630Z,91.34
2022-12-22T14:02:57.704Z,91.35
2022-12-22T14:05:31.796Z,91.13
2022-12-22T14:08:04.556Z,91.43
2022-12-22T14:10:38.480Z,91.22
2022-12-22T14:13:15.375Z,90.47
2022-12-22T14:15:43.558Z,90.69
2022-12-22T14:18:17.290Z,89.82
2022-12-22T14:20:48.453Z,89.31
2022-12-22T14:23:21.687Z,89.17
2022-12-22T14:25:51.332Z,89.00
2022-12-22T14:28:24.211Z,88.97
2022-12-22T14:30:54.702Z,88.88
2022-12-22T14:33:31.757Z,89.14
2022-12-22T14:36:17.757Z,88.93
2022-12-22T14:38:47.564Z,89.13
2022-12-22T14:41:40.056Z,89.18
2022-12-22T14:44:15.283Z,89.58
2022-12-22T14:46:44.543Z,90.28
2022-12-22T14:49:16.711Z,90.79
2022-12-22T14:51:45.015Z,90.73
2022-12-22T14:54:21.354Z,91.06
2022-12-22T14:56:51.471Z,91.50
2022-12-22T14:59:26.764Z,91.47
2022-12-22T15:01:59.882Z,92.37
2022-12-22T15:04:28.533Z,92.92
2022-12-22T15:07:45.703Z,93.11
2022-12-22T15:10:15.008Z,93.27
2022-12-22T15:12:44.642Z,94.02
2022-12-22T15:15:23.724Z,94.18
2022-12-22T15:17:54.492Z,94.03
2022-12-22T15:20:24.548Z,94.64
2022-12-22T15:22:52.960Z,94.65
2022-12-22T15:25:22.777Z,94.68
2022-12-22T15:27:52.216Z,94.82
2022-12-22T15:30:28.660Z,95.06
2022-12-22T15:32:57.370Z,95.34
2022-12-22T15:35:29.453Z,95.48
2022-12-22T15:37:57.273Z,95.90
2022-12-22T15:40:26.945Z,95.45
2022-12-22T15:42:55.418Z,96.23
2022-12-22T15:45:24.759Z,96.38
2022-12-22T15:47:55.671Z,96.08
2022-12-22T15:50:35.157Z,96.19
2022-12-22T15:53:09.151Z,96.25
2022-12-22T15:55:41.940Z,95.64
2022-12-22T15:58:13.323Z,96.10
2022-12-22T16:00:42.636Z,96.07
2022-12-22T16:03:11.798Z,95.52
2022-12-22T16:05:41.386Z,95.64
2022-12-22T16:08:18.141Z,94.99
2022-12-22T16:10:47.621Z,95.29
2022-12-22T16:13:17.344Z,94.92
2022-12-22T16:15:46.576Z,94.83
2022-12-22T16:18:14.494Z,95.03
2022-12-22T16:20:44.079Z,94.75
2022-12-22T16:23:15.948Z,94.70
2022-12-22T16:25:45.823Z,94.29
2022-12-22T16:28:17.923Z,94.71
2022-12-22T16:30:47.864Z,95.17
2022-12-22T16:33:16.183Z,94.98
2022-12-22T16:35:44.788Z,95.89
2022-12-22T16:38:18.629Z,95.80
2022-12-22T16:40:48.908Z,96.36
2022-12-22T16:46:15.275Z,96.84
2022-12-22T16:48:46.089Z,96.85
2022-12-22T16:51:18.688Z,96.59
2022-12-22T16:53:46.718Z,96.66
2022-12-22T16:56:18.961Z,97.09
2022-12-22T16:58:47.407Z,97.34
2022-12-22T17:01:25.311Z,97.11
2022-12-22T17:03:53.793Z,96.97
2022-12-22T17:06:21.967Z,97.28
2022-12-22T17:08:50.309Z,97.06
2022-12-22T17:11:22.658Z,97.48
2022-12-22T17:13:53.784Z,96.89
2022-12-22T17:16:24.211Z,97.56
2022-12-22T17:18:52.090Z,96.78
2022-12-22T17:21:21.749Z,96.68
2022-12-22T17:23:52.153Z,97.03
2022-12-22T17:26:23.861Z,97.76
2022-12-22T17:28:53.281Z,98.60
2022-12-22T17:31:23.859Z,99.30
2022-12-22T17:33:51.856Z,98.97
2022-12-22T17:36:29.408Z,99.61
2022-12-22T17:38:57.582Z,99.55
2022-12-22T17:41:26.092Z,99.81
2022-12-22T17:43:53.965Z,100.00
2022-12-22T17:46:23.672Z,99.56
2022-12-22T17:48:51.749Z,99.79
2022-12-22T17:51:23.755Z,100.00
2022-12-22T17:53:52.549Z,98.95
2022-12-22T17:56:22.059Z,99.01
2022-12-22T17:58:50.275Z,98.99
2022-12-22T18:01:21.377Z,99.33
2022-12-22T18:03:50.779Z,99.24
2022-12-22T18:06:21.930Z,99.25
2022-12-22T18:08:50.749Z,98.69
2022-12-22T18:11:18.762Z,98.94
2022-12-22T18:13:46.948Z,99.03
2022-12-22T18:16:17.067Z,98.94
2022-12-22T18:18:45.846Z,98.90
2022-12-22T18:21:18.035Z,99.02
2022-12-22T18:23:49.939Z,99.23
2022-12-22T18:26:22.267Z,99.23
2022-12-22T18:28:50.936Z,99.14
2022-12-22T18:31:18.906Z,99.20
2022-12-22T18:33:46.966Z,99.55
2022-12-22T18:36:21.863Z,99.14
2022-12-22T18:38:51.025Z,98.72
2022-12-22T18:41:22.134Z,99.26
2022-12-22T18:43:50.562Z,99.28
2022-12-22T18:46:18.744Z,98.48
2022-12-22T18:48:47.521Z,98.43
2022-12-22T18:51:21.229Z,98.84
2022-12-22T18:53:50.299Z,99.03
2022-12-22T18:56:18.233Z,98.25
2022-12-22T18:58:47.093Z,98.07
2022-12-22T19:01:19.507Z,98.18
2022-12-22T19:03:48.017Z,98.85
2022-12-22T19:06:18.679Z,99.01
2022-12-22T19:08:48.901Z,98.92
2022-12-22T19:11:18.274Z,98.69
2022-12-22T19:13:48.530Z,98.82
2022-12-22T19:16:19.586Z,98.79
2022-12-22T19:18:47.481Z,98.19
2022-12-22T19:21:15.915Z,99.06
2022-12-22T19:23:44.581Z,98.35
2022-12-22T19:26:22.047Z,98.46
2022-12-22T19:28:51.855Z,98.36
2022-12-22T19:31:23.509Z,99.17
2022-12-22T19:33:52.496Z,99.02
2022-12-22T19:36:22.376Z,99.27
2022-12-22T19:38:51.243Z,99.40
2022-12-22T19:41:31.381Z,99.82
2022-12-22T19:43:59.519Z,100.00
2022-12-22T19:46:33.372Z,99.95
2022-12-22T19:49:01.504Z,100.00
2022-12-22T19:51:31.390Z,100.00
2022-12-22T19:53:59.232Z,100.00
2022-12-22T19:56:30.779Z,100.00
2022-12-22T19:59:00.840Z,100.00
2022-12-22T20:01:29.164Z,100.00
2022-12-22T20:03:57.096Z,100.00
2022-12-22T20:06:24.910Z,100.00
2022-12-22T20:08:52.819Z,100.00
2022-12-22T20:11:21.521Z,100.00
2022-12-22T20:13:50.945Z,100.00
2022-12-22T20:16:19.029Z,100.00
2022-12-22T20:18:47.253Z,100.00
2022-12-22T20:21:19.378Z,100.00
2022-12-22T20:23:48.212Z,100.00
2022-12-22T20:26:18.804Z,100.00
2022-12-22T20:28:46.744Z,100.00
2022-12-22T20:31:17.515Z,100.00
2022-12-22T20:33:45.622Z,100.00
2022-12-22T20:36:20.755Z,100.00
2022-12-22T20:38:49.420Z,100.00
2022-12-22T20:41:17.281Z,100.00
2022-12-22T20:43:45.174Z,100.00
2022-12-22T20:46:17.943Z,100.00
2022-12-22T20:48:48.844Z,100.00
2022-12-22T20:51:18.604Z,100.00
2022-12-22T20:53:48.010Z,100.00
2022-12-22T20:56:22.750Z,100.00
2022-12-22T20:58:51.253Z,100.00
2022-12-22T21:01:20.590Z,100.00
2022-12-22T21:03:48.750Z,100.00
2022-12-22T21:06:24.713Z,99.92
2022-12-22T21:08:53.760Z,99.65
2022-12-22T21:11:21.870Z,99.76
2022-12-22T21:13:49.947Z,99.41
2022-12-22T21:16:23.093Z,99.76
2022-12-22T21:18:51.916Z,99.23
2022-12-22T21:21:20.656Z,99.16
2022-12-22T21:23:49.067Z,100.00
2022-12-22T21:26:22.725Z,100.00
2022-12-22T21:28:52.183Z,100.00
2022-12-22T21:31:22.093Z,100.00
2022-12-22T21:33:50.432Z,100.00
2022-12-22T21:36:23.515Z,100.00
2022-12-22T21:38:54.883Z,100.00
2022-12-22T21:41:44.262Z,100.00
2022-12-22T21:44:13.489Z,100.00
2022-12-22T21:46:45.879Z,100.00
2022-12-22T21:49:19.826Z,100.00
2022-12-22T21:51:48.900Z,100.00
2022-12-22T21:54:17.857Z,100.00
2022-12-22T21:56:46.172Z,100.00
2022-12-22T21:59:14.978Z,100.00
2022-12-22T22:01:45.341Z,100.00
2022-12-22T22:04:14.264Z,100.00
2022-12-22T22:06:42.453Z,100.00
2022-12-22T22:09:13.273Z,100.00
2022-12-22T22:12:00.581Z,100.00
2022-12-22T22:14:28.843Z,100.00
2022-12-22T22:16:58.403Z,100.00
2022-12-22T22:19:26.645Z,100.00
2022-12-22T22:21:54.548Z,100.00
2022-12-22T22:24:22.421Z,100.00
2022-12-22T22:26:51.591Z,100.00
2022-12-22T22:29:19.743Z,100.00
2022-12-22T22:31:47.660Z,100.00
2022-12-22T22:34:17.065Z,100.00
2022-12-22T22:36:44.931Z,100.00
2022-12-22T22:39:12.872Z,100.00
2022-12-22T22:41:43.466Z,100.00
2022-12-22T22:44:11.771Z,100.00
2022-12-22T22:46:40.657Z,100.00
2022-12-22T22:49:09.006Z,100.00
2022-12-22T22:51:38.199Z,100.00
2022-12-22T22:54:06.160Z,100.00
2022-12-22T22:56:35.399Z,100.00
2022-12-22T22:59:03.886Z,100.00
2022-12-22T23:01:32.014Z,100.00
2022-12-22T23:04:00.038Z,100.00
2022-12-22T23:06:28.053Z,100.00
2022-12-22T23:08:57.309Z,100.00
2022-12-22T23:11:25.775Z,100.00
2022-12-22T23:13:55.598Z,100.00
2022-12-22T23:16:24.444Z,100.00
2022-12-22T23:18:53.971Z,100.00
2022-12-22T23:21:23.402Z,100.00
2022-12-22T23:23:55.422Z,100.00
2022-12-22T23:26:25.665Z,100.00
2022-12-22T23:28:59.290Z,100.00
2022-12-22T23:31:31.216Z,100.00
2022-12-22T23:33:59.585Z,100.00
2022-12-22T23:36:27.485Z,100.00
2022-12-22T23:38:55.402Z,100.00
2022-12-22T23:41:25.068Z,100.00
2022-12-22T23:43:54.198Z,100.00
2022-12-22T23:46:22.175Z,100.00
2022-12-22T23:48:52.567Z,100.00
2022-12-22T23:51:21.761Z,100.00
2022-12-22T23:53:49.668Z,100.00
2022-12-22T23:56:17.933Z,100.00
2022-12-22T23:58:52.526Z,100.00
